Погода Сиднейна неделю

Новый-Южный Уэльс, Австралия

05 - 11 марта
  • 05марта
    Сегодня
    +17°
    +25°
    Практически безоблачно
    ВремяПогодаТемператураВлажностьДавлениеВетер, м/сВероятность осадков
    02:00Практически безоблачно+18°C70 %767 мм2.5 м/с5 %
    05:00Ясно и безоблачно+17°C87 %767 мм2.6 м/с5 %
    08:00Ясно и безоблачно+17°C76 %767 мм2.2 м/с5 %
    11:00Практически безоблачно+23°C53 %768 мм3.6 м/с5 %
    14:00Практически безоблачно+25°C52 %766 мм5.4 м/с5 %
    17:00Ясно и безоблачно+24°C55 %764 мм6.0 м/с5 %
    20:00Ясно и безоблачно+21°C61 %765 мм4.6 м/с5 %
    23:00Ясно и безоблачно+21°C75 %766 мм3.7 м/с5 %
  • 06марта
    Среда
    +20°
    +29°
    Практически безоблачно
    ВремяПогодаТемператураВлажностьДавлениеВетер, м/сВероятность осадков
    02:00Ясно и безоблачно+20°C86 %765 мм3.1 м/с5 %
    05:00Ясно и безоблачно+19°C89 %764 мм3.1 м/с5 %
    08:00Ясно и безоблачно+19°C83 %766 мм3.4 м/с5 %
    11:00Практически безоблачно+26°C60 %765 мм4.8 м/с5 %
    14:00Практически безоблачно+29°C62 %763 мм6.1 м/с5 %
    17:00Практически безоблачно+26°C66 %762 мм6.1 м/с2 %
    20:00Облачно с прояснениями+24°C78 %763 мм4.8 м/с5 %
    23:00Облачно с прояснениями+23°C84 %763 мм4.2 м/с3 %
  • 07марта
    Четверг
    +19°
    +27°
    Небольшая облачность
    ВремяПогодаТемператураВлажностьДавлениеВетер, м/сВероятность осадков
    02:00Небольшая облачность+22°C88 %763 мм2.7 м/с2 %
    05:00Небольшая облачность+22°C92 %763 мм2.3 м/с6 %
    08:00Небольшая облачность+21°C91 %765 мм2.3 м/с6 %
    11:00Небольшая облачность+26°C74 %766 мм5.6 м/с6 %
    14:00Небольшая облачность+27°C71 %766 мм6.4 м/с11 %
    17:00Облачно с прояснениями+24°C77 %765 мм5.7 м/с25 %
    20:00Небольшая облачность+23°C87 %767 мм2.9 м/с28 %
    23:00Практически безоблачно+23°C89 %768 мм1.6 м/с42 %
  • 08марта
    Пятница
    +19°
    +27°
    Ясно и безоблачно
    ВремяПогодаТемператураВлажностьДавлениеВетер, м/сВероятность осадков
    02:00Небольшая облачность+22°C92 %767 мм1.9 м/с50 %
    05:00Практически безоблачно+21°C93 %767 мм1.9 м/с49 %
    08:00Небольшая облачность и лёгкий дождик+21°C92 %768 мм2.1 м/с51 %
    11:00Небольшая облачность и лёгкий дождик+26°C71 %768 мм3.5 м/с55 %
    14:00Ясно и безоблачно+27°C67 %767 мм5.3 м/с29 %
    17:00Ясно и безоблачно+26°C70 %766 мм5.8 м/с16 %
    20:00Ясно и безоблачно+23°C74 %767 мм4.3 м/с5 %
    23:00Ясно и безоблачно+23°C77 %768 мм2.9 м/с19 %
  • 09марта
    Суббота
    +18°
    +28°
    Ясно и безоблачно
    ВремяПогодаТемператураВлажностьДавлениеВетер, м/сВероятность осадков
    02:00Небольшая облачность+21°C85 %768 мм2.3 м/с24 %
    05:00Небольшая облачность+21°C96 %768 мм2.0 м/с22 %
    08:00Небольшая облачность+20°C95 %769 мм2.1 м/с13 %
    11:00Практически безоблачно+26°C70 %769 мм4.3 м/с12 %
    14:00Ясно и безоблачно+27°C69 %768 мм6.1 м/с4 %
    17:00Ясно и безоблачно+26°C70 %767 мм6.0 м/с5 %
    20:00Ясно и безоблачно+24°C77 %768 мм4.3 м/с5 %
    23:00Ясно и безоблачно+23°C77 %769 мм3.3 м/с5 %
Мы используем cookies
Соглашаюсь